KHLR/HLR METAR and TAF weather

Enter ICAO airport designator
Station Type Date Time Source
KHLR METAR 2019/02/22 22:08 UTC NOAA

KHLR 222208Z AUTO 06005KT 10SM OVC007 12/10 A2985 RMK AO2 SLPNO


Station Type Date Time Source
KHLR Decoded METAR 2019/02/22 22:08 UTC NOAA

Fort Hood, Hood AAF Ft Hood, TX, United States (KHLR) 31-08N 097-42W
Feb 22, 2019 - 05:08 PM EST / 2019.02.22 2208 UTC
Wind: from the ENE (060 degrees) at 6 MPH (5 KT):0
Visibility: 10 mile(s):0
Sky conditions: overcast
Temperature: 53 F (12 C)
Dew Point: 50 F (10 C)
Relative Humidity: 87%
Pressure (altimeter): 29.85 in. Hg (1010 hPa)
ob: KHLR 222208Z AUTO 06005KT 10SM OVC007 12/10 A2985 RMK AO2 SLPNO
cycle: 22

Station Type Date Time Source
KHLR TAF UTC NOAA

Error!


Example: see airport list